Time;durP1;ratioP1;P1;durP2;ratioP2;P2;SDS_P1;SDS_P2;PMS_P1;PMS_P2;Temp;Humidity;BMP_temperature;BMP_pressure;BME280_temperature;BME280_humidity;BME280_pressure;Samples;Min_cycle;Max_cycle;Signal;HPM_P1;HPM_P2
2022/05/18 00:01:07;;;;;;;3.97;3.00;;;;;;;;;;5034165;28;20107;-69
2022/05/18 00:03:36;;;;;;;4.95;2.90;;;;;;;;;;5034123;28;20045;-68
2022/05/18 00:06:04;;;;;;;3.92;2.55;;;;;;;;;;5034475;28;20099;-69
2022/05/18 00:08:37;;;;;;;3.72;3.13;;;;;;;;;;5033817;28;20095;-69
2022/05/18 00:11:07;;;;;;;5.72;3.22;;;;;;;;;;5034026;28;20057;-69
2022/05/18 00:13:34;;;;;;;3.50;3.03;;;;;;;;;;5033947;28;20099;-68
2022/05/18 00:16:01;;;;;;;3.20;2.90;;;;;;;;;;5034053;28;20107;-69
2022/05/18 00:18:27;;;;;;;6.47;3.17;;;;;;;;;;5033877;28;20561;-68
2022/05/18 00:20:54;;;;;;;4.93;2.65;;;;;;;;;;5033758;28;20132;-67
2022/05/18 00:23:20;;;;;;;3.88;2.97;;;;;;;;;;5033914;28;20107;-68
2022/05/18 00:25:47;;;;;;;3.97;3.20;;;;;;;;;;5033844;28;20053;-69
2022/05/18 00:28:14;;;;;;;5.18;2.88;;;;;;;;;;5033950;28;20045;-69
2022/05/18 00:30:40;;;;;;;3.25;2.92;;;;;;;;;;5033541;28;20462;-68
2022/05/18 00:33:09;;;;;;;3.95;2.88;;;;;;;;;;5033832;28;20459;-68
2022/05/18 00:35:37;;;;;;;4.60;3.20;;;;;;;;;;5033840;28;20053;-69
2022/05/18 00:38:04;;;;;;;4.10;3.60;;;;;;;;;;5033685;28;20049;-68
2022/05/18 00:40:31;;;;;;;4.10;3.05;;;;;;;;;;5033677;28;20053;-68
2022/05/18 00:42:58;;;;;;;5.35;3.33;;;;;;;;;;5048653;28;20050;-69
2022/05/18 00:45:24;;;;;;;4.07;2.97;;;;;;;;;;5032159;28;20077;-67
2022/05/18 00:47:52;;;;;;;3.42;2.90;;;;;;;;;;5033616;28;20115;-69
2022/05/18 00:50:23;;;;;;;6.13;3.05;;;;;;;;;;5033579;28;20068;-68
2022/05/18 00:53:04;;;;;;;3.40;3.03;;;;;;;;;;5032960;28;20111;-68
2022/05/18 00:55:34;;;;;;;6.28;3.67;;;;;;;;;;5033216;28;20103;-68
2022/05/18 00:58:19;;;;;;;6.15;3.42;;;;;;;;;;5032075;28;20053;-68
2022/05/18 01:00:45;;;;;;;5.85;3.42;;;;;;;;;;5033098;28;20049;-68
2022/05/18 01:03:28;;;;;;;4.50;3.30;;;;;;;;;;5031862;28;20049;-69
2022/05/18 01:05:58;;;;;;;6.30;3.58;;;;;;;;;;5033434;28;20049;-69
2022/05/18 01:08:40;;;;;;;4.15;3.20;;;;;;;;;;5032097;28;20061;-68
2022/05/18 01:11:07;;;;;;;6.47;3.38;;;;;;;;;;5032406;28;20467;-69
2022/05/18 01:13:33;;;;;;;4.30;3.03;;;;;;;;;;5049022;28;20080;-69
2022/05/18 01:16:00;;;;;;;4.00;3.30;;;;;;;;;;5033642;28;20064;-69
2022/05/18 01:18:27;;;;;;;6.53;3.60;;;;;;;;;;5048411;28;20053;-69
2022/05/18 01:20:56;;;;;;;3.58;3.17;;;;;;;;;;5031008;28;20053;-69
2022/05/18 01:23:47;;;;;;;5.72;3.20;;;;;;;;;;5015469;28;20518;-67
2022/05/18 01:26:19;;;;;;;5.07;3.60;;;;;;;;;;5032891;28;20063;-67
2022/05/18 01:28:53;;;;;;;4.22;3.00;;;;;;;;;;5031556;28;20053;-67
2022/05/18 01:32:00;;;;;;;5.78;3.35;;;;;;;;;;5031195;28;20053;-68
2022/05/18 01:34:30;;;;;;;7.05;4.32;;;;;;;;;;5032402;28;20132;-68
2022/05/18 01:36:56;;;;;;;6.25;3.33;;;;;;;;;;5032559;28;20061;-67
2022/05/18 01:39:39;;;;;;;4.28;3.35;;;;;;;;;;5032327;28;20045;-68
2022/05/18 01:42:06;;;;;;;3.65;3.35;;;;;;;;;;5031364;28;20096;-66
2022/05/18 01:44:34;;;;;;;3.22;2.92;;;;;;;;;;5032586;28;20115;-67
2022/05/18 01:47:00;;;;;;;5.88;3.72;;;;;;;;;;5031528;28;20103;-68
2022/05/18 01:49:27;;;;;;;4.55;3.50;;;;;;;;;;5032428;28;20492;-67
2022/05/18 01:51:54;;;;;;;7.45;4.10;;;;;;;;;;5031787;28;20103;-67
2022/05/18 01:54:20;;;;;;;6.82;3.53;;;;;;;;;;5030957;28;20057;-67
2022/05/18 01:56:47;;;;;;;5.25;3.75;;;;;;;;;;5032417;28;20056;-68
2022/05/18 01:59:14;;;;;;;6.13;3.85;;;;;;;;;;5032183;28;20042;-68
2022/05/18 02:01:40;;;;;;;6.30;3.58;;;;;;;;;;5031998;28;20049;-67
2022/05/18 02:04:07;;;;;;;5.75;3.65;;;;;;;;;;5032157;28;20123;-67
2022/05/18 02:06:34;;;;;;;4.25;3.85;;;;;;;;;;5031920;28;20126;-68
2022/05/18 02:09:01;;;;;;;6.50;3.72;;;;;;;;;;5031095;28;20052;-67
2022/05/18 02:11:28;;;;;;;5.43;3.75;;;;;;;;;;5031976;28;20393;-68
2022/05/18 02:13:55;;;;;;;5.00;3.78;;;;;;;;;;5032014;28;20046;-67
2022/05/18 02:16:21;;;;;;;4.70;3.40;;;;;;;;;;5031986;28;20554;-67
2022/05/18 02:18:48;;;;;;;4.68;3.88;;;;;;;;;;5031949;28;20111;-68
2022/05/18 02:21:15;;;;;;;4.95;3.20;;;;;;;;;;5031508;28;20088;-66
2022/05/18 02:23:42;;;;;;;5.82;3.30;;;;;;;;;;5032075;28;20463;-67
2022/05/18 02:26:16;;;;;;;6.03;3.80;;;;;;;;;;5031865;28;20496;-67
2022/05/18 02:28:43;;;;;;;5.32;3.70;;;;;;;;;;5031969;28;20095;-67
2022/05/18 02:31:11;;;;;;;4.13;3.72;;;;;;;;;;5031822;28;20053;-68
2022/05/18 02:33:38;;;;;;;4.22;3.38;;;;;;;;;;5035757;28;20080;-67
2022/05/18 02:36:07;;;;;;;5.65;3.97;;;;;;;;;;5036094;28;20049;-66
2022/05/18 02:38:34;;;;;;;4.35;3.67;;;;;;;;;;5035993;28;20045;-67
2022/05/18 02:41:01;;;;;;;5.38;3.67;;;;;;;;;;5035638;28;20463;-67
2022/05/18 02:43:28;;;;;;;5.95;3.78;;;;;;;;;;5051112;28;20099;-67
2022/05/18 02:46:09;;;;;;;4.20;3.55;;;;;;;;;;5035663;28;20566;-68
2022/05/18 02:48:36;;;;;;;5.25;3.85;;;;;;;;;;5035699;28;20061;-67
2022/05/18 02:51:04;;;;;;;4.80;3.78;;;;;;;;;;5035311;28;20470;-68
2022/05/18 02:53:31;;;;;;;5.28;3.25;;;;;;;;;;5035723;28;20413;-68
2022/05/18 02:56:06;;;;;;;7.00;4.07;;;;;;;;;;5035522;28;20089;-66
2022/05/18 02:58:36;;;;;;;;;;;;;;;;;;5035987;28;20100;-68
2022/05/18 03:01:05;;;;;;;5.32;3.70;;;;;;;;;;5035319;28;19921;-67
2022/05/18 03:03:31;;;;;;;5.68;3.95;;;;;;;;;;5035526;28;20099;-67
2022/05/18 03:05:58;;;;;;;6.70;4.03;;;;;;;;;;5035424;28;20127;-68
2022/05/18 03:08:25;;;;;;;4.85;4.07;;;;;;;;;;5035421;28;20104;-68
2022/05/18 03:10:51;;;;;;;6.28;3.72;;;;;;;;;;5034968;28;20045;-68
2022/05/18 03:13:18;;;;;;;4.95;4.10;;;;;;;;;;5035034;28;20057;-67
2022/05/18 03:15:47;;;;;;;6.13;3.88;;;;;;;;;;5035393;28;20083;-68
2022/05/18 03:18:14;;;;;;;4.82;3.90;;;;;;;;;;5035243;28;20049;-67
2022/05/18 03:23:33;;;;;;;5.15;3.70;;;;;;;;;;5034999;28;20508;-67
2022/05/18 03:26:21;;;;;;;4.68;4.20;;;;;;;;;;5035195;28;20084;-66
2022/05/18 03:28:55;;;;;;;5.38;3.67;;;;;;;;;;5034985;28;20050;-68
2022/05/18 03:31:25;;;;;;;5.35;4.25;;;;;;;;;;5034807;28;20072;-68
2022/05/18 03:33:52;;;;;;;5.40;4.07;;;;;;;;;;5034790;28;20054;-67
2022/05/18 03:36:19;;;;;;;5.82;3.55;;;;;;;;;;5034765;28;20061;-68
2022/05/18 03:38:47;;;;;;;6.80;4.00;;;;;;;;;;5033803;28;20554;-68
2022/05/18 03:41:13;;;;;;;5.18;4.03;;;;;;;;;;5035739;28;20049;-66
2022/05/18 03:43:40;;;;;;;5.28;4.55;;;;;;;;;;5035288;28;20562;-66
2022/05/18 03:46:07;;;;;;;4.93;4.15;;;;;;;;;;5036826;28;20053;-67
2022/05/18 03:48:34;;;;;;;5.68;4.13;;;;;;;;;;5036734;28;20099;-67
2022/05/18 03:53:36;;;;;;;5.95;4.53;;;;;;;;;;5012751;28;20116;-70
2022/05/18 03:56:04;;;;;;;4.30;3.90;;;;;;;;;;5014574;28;20107;-70
2022/05/18 03:58:30;;;;;;;5.95;4.70;;;;;;;;;;5014770;28;20160;-71
2022/05/18 04:01:01;;;;;;;8.30;5.03;;;;;;;;;;5014242;28;20459;-70
2022/05/18 04:03:29;;;;;;;8.05;4.85;;;;;;;;;;5014395;28;20058;-70
2022/05/18 04:05:56;;;;;;;8.90;4.65;;;;;;;;;;5014520;28;20046;-71
2022/05/18 04:08:22;;;;;;;6.82;4.82;;;;;;;;;;5014662;28;20058;-71
2022/05/18 04:10:49;;;;;;;6.65;4.30;;;;;;;;;;5014314;28;20054;-70
2022/05/18 04:13:18;;;;;;;7.47;4.65;;;;;;;;;;5014315;28;20045;-70
2022/05/18 04:15:44;;;;;;;5.40;4.90;;;;;;;;;;5014280;28;20054;-71
2022/05/18 04:18:11;;;;;;;5.93;4.38;;;;;;;;;;5014533;28;20056;-70
2022/05/18 04:20:39;;;;;;;5.32;4.20;;;;;;;;;;5014148;28;20049;-70
2022/05/18 04:23:06;;;;;;;6.10;4.70;;;;;;;;;;5014181;28;20046;-70
2022/05/18 04:25:32;;;;;;;5.03;4.53;;;;;;;;;;5014247;28;20072;-70
2022/05/18 04:27:59;;;;;;;5.65;5.07;;;;;;;;;;5014137;28;20379;-71
2022/05/18 04:30:26;;;;;;;6.53;4.43;;;;;;;;;;5013861;28;20041;-70
2022/05/18 04:32:53;;;;;;;5.72;4.53;;;;;;;;;;5013821;28;20460;-69
2022/05/18 04:35:22;;;;;;;7.07;4.68;;;;;;;;;;5014009;28;20050;-70
2022/05/18 04:37:50;;;;;;;8.00;4.70;;;;;;;;;;5013724;28;20607;-71
2022/05/18 04:40:17;;;;;;;5.22;4.72;;;;;;;;;;5013753;28;20492;-70
2022/05/18 04:42:43;;;;;;;7.15;4.93;;;;;;;;;;5028554;28;20547;-70
2022/05/18 04:45:12;;;;;;;6.28;5.13;;;;;;;;;;5013655;28;20065;-70
2022/05/18 04:47:39;;;;;;;7.05;4.65;;;;;;;;;;5013815;28;20061;-70
2022/05/18 04:50:06;;;;;;;7.95;4.82;;;;;;;;;;5013622;28;20108;-70
2022/05/18 04:52:33;;;;;;;6.55;4.50;;;;;;;;;;5013188;28;20049;-70
2022/05/18 04:55:00;;;;;;;7.35;5.45;;;;;;;;;;5012607;28;20068;-71
2022/05/18 04:57:26;;;;;;;5.50;4.90;;;;;;;;;;5013379;28;20101;-71
2022/05/18 04:59:53;;;;;;;6.78;4.35;;;;;;;;;;5013417;28;20041;-70
2022/05/18 05:02:19;;;;;;;7.85;4.47;;;;;;;;;;5011936;28;20054;-70
2022/05/18 05:04:46;;;;;;;5.25;4.75;;;;;;;;;;5013414;28;20128;-71
2022/05/18 05:07:13;;;;;;;8.48;5.07;;;;;;;;;;5012068;28;20501;-70
2022/05/18 05:09:40;;;;;;;8.25;5.03;;;;;;;;;;4980647;28;20488;-70
2022/05/18 05:12:08;;;;;;;5.80;4.78;;;;;;;;;;4995897;28;20054;-71
2022/05/18 05:14:38;;;;;;;5.82;4.82;;;;;;;;;;4996279;28;20053;-70
2022/05/18 05:17:06;;;;;;;6.88;4.90;;;;;;;;;;5012536;28;20049;-70
2022/05/18 05:19:35;;;;;;;5.78;4.72;;;;;;;;;;5013410;28;20129;-71
2022/05/18 05:22:02;;;;;;;5.38;4.88;;;;;;;;;;5012942;28;20116;-70
2022/05/18 05:24:28;;;;;;;6.93;4.32;;;;;;;;;;5012022;28;20054;-70
2022/05/18 05:26:55;;;;;;;6.30;5.38;;;;;;;;;;5012133;28;20050;-71
2022/05/18 05:29:22;;;;;;;6.75;4.97;;;;;;;;;;5013305;28;20500;-70
2022/05/18 05:31:48;;;;;;;6.47;4.70;;;;;;;;;;5012874;28;20488;-70
2022/05/18 05:34:15;;;;;;;5.65;5.05;;;;;;;;;;5012799;28;20136;-71
2022/05/18 05:36:42;;;;;;;6.88;4.65;;;;;;;;;;5012869;28;20107;-70
2022/05/18 05:39:08;;;;;;;7.25;4.72;;;;;;;;;;5012592;28;20050;-69
2022/05/18 05:41:35;;;;;;;10.02;5.38;;;;;;;;;;5012594;28;20050;-71
2022/05/18 05:44:02;;;;;;;5.60;4.60;;;;;;;;;;5012785;28;20058;-70
2022/05/18 05:46:28;;;;;;;6.93;4.75;;;;;;;;;;5012762;28;20423;-70
2022/05/18 05:48:55;;;;;;;6.63;4.90;;;;;;;;;;5012639;28;20049;-70
2022/05/18 05:51:25;;;;;;;7.57;5.50;;;;;;;;;;5012624;28;20133;-70
2022/05/18 05:53:52;;;;;;;6.50;4.75;;;;;;;;;;5012392;28;20504;-70
2022/05/18 05:56:20;;;;;;;7.40;4.70;;;;;;;;;;5012640;28;20049;-70
2022/05/18 05:58:48;;;;;;;7.60;4.78;;;;;;;;;;5012569;28;20057;-70
2022/05/18 06:01:15;;;;;;;5.65;4.38;;;;;;;;;;5011976;28;20526;-70
2022/05/18 06:03:42;;;;;;;6.63;4.55;;;;;;;;;;5012821;28;20054;-70
2022/05/18 06:06:10;;;;;;;8.55;5.15;;;;;;;;;;5010156;28;20053;-69
2022/05/18 06:08:37;;;;;;;7.47;4.93;;;;;;;;;;5012488;28;20054;-69
2022/05/18 06:11:04;;;;;;;8.95;4.65;;;;;;;;;;5012297;28;20097;-70
2022/05/18 06:13:32;;;;;;;5.28;4.30;;;;;;;;;;5012131;28;20046;-70
2022/05/18 06:16:00;;;;;;;7.93;3.85;;;;;;;;;;5012325;28;20049;-70
2022/05/18 06:18:27;;;;;;;6.43;4.30;;;;;;;;;;5012246;28;20542;-70
2022/05/18 06:20:53;;;;;;;6.82;4.35;;;;;;;;;;5011800;28;20041;-70
2022/05/18 06:23:20;;;;;;;5.32;4.18;;;;;;;;;;5012158;28;20052;-71
2022/05/18 06:25:46;;;;;;;6.38;4.53;;;;;;;;;;5012274;28;20053;-70
2022/05/18 06:28:13;;;;;;;9.95;4.35;;;;;;;;;;5012217;28;20050;-70
2022/05/18 06:30:41;;;;;;;7.07;4.78;;;;;;;;;;5011999;28;20092;-69
2022/05/18 06:33:09;;;;;;;8.13;4.65;;;;;;;;;;5011786;28;20156;-70
2022/05/18 06:35:36;;;;;;;12.05;4.28;;;;;;;;;;5011919;28;20046;-71
2022/05/18 06:38:11;;;;;;;9.63;4.00;;;;;;;;;;5012205;28;20050;-70
2022/05/18 06:43:24;;;;;;;7.45;3.78;;;;;;;;;;5011850;28;20046;-70
2022/05/18 06:45:51;;;;;;;8.98;4.10;;;;;;;;;;5011780;28;20446;-70
2022/05/18 06:48:17;;;;;;;8.07;3.50;;;;;;;;;;5011870;28;20497;-70
2022/05/18 06:51:04;;;;;;;7.07;4.10;;;;;;;;;;5011973;28;20470;-70
2022/05/18 06:53:30;;;;;;;8.02;3.92;;;;;;;;;;5010495;28;20084;-70
2022/05/18 06:55:57;;;;;;;5.25;4.00;;;;;;;;;;5011820;28;20081;-70
2022/05/18 06:58:30;;;;;;;;;;;;;;;;;;5012165;28;20054;-70
2022/05/18 07:00:56;;;;;;;9.70;4.43;;;;;;;;;;5011714;28;19925;-70
2022/05/18 07:03:23;;;;;;;5.20;3.80;;;;;;;;;;5011735;28;20054;-70
2022/05/18 07:05:50;;;;;;;4.50;2.90;;;;;;;;;;5012215;28;20052;-70
2022/05/18 07:08:17;;;;;;;6.13;3.45;;;;;;;;;;5011803;28;20081;-71
2022/05/18 07:10:44;;;;;;;4.82;3.50;;;;;;;;;;5011409;28;20103;-72
2022/05/18 07:13:16;;;;;;;4.65;3.65;;;;;;;;;;5011733;28;20054;-70
2022/05/18 07:15:44;;;;;;;;;;;;;;;;;;5012285;28;20049;-71
2022/05/18 07:18:11;;;;;;;6.15;3.10;;;;;;;;;;5012058;28;19921;-70
2022/05/18 07:20:37;;;;;;;3.53;2.90;;;;;;;;;;5015075;28;20096;-71
2022/05/18 07:23:04;;;;;;;5.28;3.25;;;;;;;;;;5015147;28;20049;-70
2022/05/18 07:25:30;;;;;;;3.70;3.03;;;;;;;;;;5015171;28;20057;-70
2022/05/18 07:27:57;;;;;;;4.82;3.08;;;;;;;;;;5015354;28;20128;-70
2022/05/18 07:30:44;;;;;;;4.90;3.05;;;;;;;;;;5014879;28;20088;-72
2022/05/18 07:33:10;;;;;;;3.97;2.58;;;;;;;;;;5015043;28;20054;-70
2022/05/18 07:35:37;;;;;;;4.72;2.88;;;;;;;;;;5015038;28;20471;-70
2022/05/18 07:38:04;;;;;;;3.38;3.03;;;;;;;;;;5015245;28;20417;-70
2022/05/18 07:40:51;;;;;;;6.30;3.10;;;;;;;;;;5015295;28;20534;-71
2022/05/18 07:43:18;;;;;;;7.07;3.83;;;;;;;;;;5014842;28;20053;-71
2022/05/18 07:45:50;;;;;;;4.07;2.75;;;;;;;;;;5015479;28;20080;-70
2022/05/18 07:48:19;;;;;;;3.58;3.08;;;;;;;;;;5014790;28;20065;-70
2022/05/18 07:50:46;;;;;;;3.22;2.40;;;;;;;;;;5014863;28;20053;-71
2022/05/18 07:53:13;;;;;;;5.75;3.03;;;;;;;;;;5014694;28;20103;-70
2022/05/18 07:55:40;;;;;;;3.78;2.42;;;;;;;;;;5014933;28;20054;-70
2022/05/18 07:58:09;;;;;;;5.07;2.70;;;;;;;;;;5014575;28;20049;-71
2022/05/18 08:00:35;;;;;;;7.28;3.08;;;;;;;;;;5014569;28;20046;-70
2022/05/18 08:03:02;;;;;;;4.55;2.90;;;;;;;;;;5014355;28;20057;-70
2022/05/18 08:05:30;;;;;;;4.18;2.63;;;;;;;;;;5014418;28;20092;-70
2022/05/18 08:07:57;;;;;;;4.82;2.60;;;;;;;;;;5014658;28;20053;-71
2022/05/18 08:15:55;;;;;;;5.95;2.60;;;;;;;;;;5013549;28;20050;-70
2022/05/18 08:18:22;;;;;;;7.35;2.53;;;;;;;;;;5013108;28;20806;-70
2022/05/18 08:20:51;;;;;;;3.60;2.72;;;;;;;;;;5014229;28;20069;-71
2022/05/18 08:23:18;;;;;;;4.00;2.95;;;;;;;;;;5014098;28;20054;-70
2022/05/18 08:25:46;;;;;;;2.83;2.28;;;;;;;;;;5014110;28;20046;-70
2022/05/18 08:28:14;;;;;;;3.95;2.30;;;;;;;;;;5014318;28;20150;-70
2022/05/18 08:30:42;;;;;;;4.88;3.08;;;;;;;;;;5029182;28;20050;-68
2022/05/18 08:33:09;;;;;;;3.45;2.50;;;;;;;;;;5013937;28;20064;-69
2022/05/18 08:35:36;;;;;;;6.18;2.80;;;;;;;;;;5013988;28;20100;-69
2022/05/18 08:38:03;;;;;;;3.58;2.28;;;;;;;;;;5014407;28;20062;-69
2022/05/18 08:40:29;;;;;;;3.75;2.58;;;;;;;;;;5013599;28;20794;-69
2022/05/18 08:42:57;;;;;;;7.32;2.85;;;;;;;;;;5013476;28;20500;-68
2022/05/18 08:45:26;;;;;;;5.47;2.08;;;;;;;;;;5013731;28;20527;-69
2022/05/18 08:48:06;;;;;;;2.45;1.88;;;;;;;;;;5012743;28;20107;-69
2022/05/18 08:50:33;;;;;;;3.10;2.35;;;;;;;;;;5012552;28;20484;-69
2022/05/18 08:53:09;;;;;;;4.78;2.40;;;;;;;;;;5011997;28;20057;-69
2022/05/18 08:55:54;;;;;;;4.63;2.40;;;;;;;;;;5013662;28;20073;-69
2022/05/18 08:58:59;;;;;;;5.75;2.67;;;;;;;;;;5013652;28;20073;-69
2022/05/18 09:01:28;;;;;;;3.88;2.50;;;;;;;;;;4952419;29;20051;-69
2022/05/18 09:04:00;;;;;;;3.28;2.40;;;;;;;;;;4936903;29;20046;-69
2022/05/18 09:06:34;;;;;;;3.13;2.20;;;;;;;;;;4984471;28;20548;-69
2022/05/18 09:11:51;;;;;;;3.72;2.45;;;;;;;;;;5013024;28;20108;-69
2022/05/18 09:14:20;;;;;;;4.47;2.13;;;;;;;;;;5013140;28;20050;-69
2022/05/18 09:17:04;;;;;;;6.10;2.58;;;;;;;;;;5012104;28;20050;-69
2022/05/18 09:19:48;;;;;;;2.50;2.05;;;;;;;;;;5011985;28;20128;-69
2022/05/18 09:22:56;;;;;;;4.75;2.45;;;;;;;;;;5012695;28;20128;-69
2022/05/18 09:25:44;;;;;;;4.43;2.45;;;;;;;;;;5005392;28;20108;-69
2022/05/18 09:28:52;;;;;;;3.92;2.20;;;;;;;;;;5012890;28;20054;-69
2022/05/18 09:31:30;;;;;;;3.78;2.15;;;;;;;;;;5012893;28;20057;-68
2022/05/18 09:34:19;;;;;;;4.25;2.10;;;;;;;;;;5011808;28;20475;-69
2022/05/18 09:36:59;;;;;;;2.67;2.20;;;;;;;;;;5012779;28;20109;-69
2022/05/18 09:39:27;;;;;;;3.80;2.38;;;;;;;;;;5027856;28;20054;-69
2022/05/18 09:42:01;;;;;;;2.20;1.85;;;;;;;;;;5010916;28;20046;-69
2022/05/18 09:44:42;;;;;;;3.03;2.15;;;;;;;;;;5011540;28;20069;-69
2022/05/18 09:47:10;;;;;;;7.32;1.90;;;;;;;;;;5012624;28;20467;-68
2022/05/18 09:49:43;;;;;;;4.90;2.05;;;;;;;;;;5012829;28;20050;-69
2022/05/18 09:52:10;;;;;;;3.00;1.88;;;;;;;;;;5041861;22;20033;-69
2022/05/18 09:54:37;;;;;;;2.90;2.20;;;;;;;;;;5051374;28;20056;-69
2022/05/18 09:57:13;;;;;;;3.05;2.15;;;;;;;;;;5051315;28;20056;-69
2022/05/18 09:59:44;;;;;;;3.72;2.20;;;;;;;;;;5050849;28;20053;-69
2022/05/18 10:08:02;;;;;;;3.78;2.00;;;;;;;;;;5051877;28;20055;-69
2022/05/18 10:10:36;;;;;;;3.35;2.20;;;;;;;;;;5050884;28;20053;-69
2022/05/18 10:13:11;;;;;;;2.80;1.83;;;;;;;;;;5050781;28;20462;-69
2022/05/18 10:16:07;;;;;;;2.50;2.17;;;;;;;;;;5064906;28;20053;-69
2022/05/18 10:18:34;;;;;;;3.15;2.05;;;;;;;;;;5050749;28;20068;-69
2022/05/18 10:21:02;;;;;;;4.40;2.20;;;;;;;;;;5050631;28;20044;-69
2022/05/18 10:23:55;;;;;;;5.20;2.10;;;;;;;;;;5050885;28;20048;-69
2022/05/18 10:26:40;;;;;;;33.83;19.88;;;;;;;;;;5050685;28;20048;-69
2022/05/18 10:29:13;;;;;;;2.97;2.22;;;;;;;;;;5052023;28;20048;-69
2022/05/18 10:31:42;;;;;;;8.60;4.85;;;;;;;;;;5051569;28;20044;-69
2022/05/18 10:34:23;;;;;;;5.53;2.85;;;;;;;;;;5050750;28;20127;-69
2022/05/18 10:36:56;;;;;;;4.80;3.05;;;;;;;;;;5051647;28;20049;-68
2022/05/18 10:39:30;;;;;;;3.75;1.88;;;;;;;;;;5051592;28;20111;-68
2022/05/18 10:41:57;;;;;;;4.28;1.90;;;;;;;;;;5041604;28;20545;-70
2022/05/18 10:44:29;;;;;;;1.38;1.27;;;;;;;;;;5050229;28;20049;-69
2022/05/18 10:46:55;;;;;;;2.88;1.70;;;;;;;;;;5048721;28;20492;-70
2022/05/18 10:49:35;;;;;;;4.68;1.55;;;;;;;;;;5033816;28;20102;-69
2022/05/18 10:52:13;;;;;;;3.00;1.48;;;;;;;;;;5045909;28;20045;-68
2022/05/18 10:54:40;;;;;;;2.55;1.50;;;;;;;;;;5034445;28;20054;-68
2022/05/18 10:57:18;;;;;;;3.15;1.63;;;;;;;;;;5034239;28;20050;-68
2022/05/18 11:00:06;;;;;;;2.65;1.52;;;;;;;;;;5035529;28;20104;-68
2022/05/18 11:03:04;;;;;;;1.88;1.50;;;;;;;;;;5034779;28;20050;-71
2022/05/18 11:05:52;;;;;;;3.15;1.65;;;;;;;;;;5040826;28;20049;-68
2022/05/18 11:08:21;;;;;;;4.20;1.55;;;;;;;;;;5052070;28;20062;-68
2022/05/18 11:10:54;;;;;;;2.97;1.20;;;;;;;;;;5040022;28;20053;-67
2022/05/18 11:13:34;;;;;;;2.90;1.25;;;;;;;;;;5042513;28;20448;-68
2022/05/18 11:16:22;;;;;;;1.40;1.30;;;;;;;;;;5043236;28;20194;-68
2022/05/18 11:19:04;;;;;;;4.10;1.85;;;;;;;;;;5044339;28;20053;-67
2022/05/18 11:21:42;;;;;;;3.37;1.53;;;;;;;;;;5040204;28;20507;-69
2022/05/18 11:24:30;;;;;;;2.28;1.45;;;;;;;;;;5057163;28;20045;-68
2022/05/18 11:27:29;;;;;;;3.50;1.45;;;;;;;;;;5039705;28;20053;-67
2022/05/18 11:30:09;;;;;;;2.33;1.50;;;;;;;;;;5039120;28;20096;-67
2022/05/18 11:32:58;;;;;;;5.40;2.00;;;;;;;;;;5051407;28;20049;-68
2022/05/18 11:35:55;;;;;;;5.00;1.42;;;;;;;;;;5058188;28;20053;-68
2022/05/18 11:38:30;;;;;;;5.38;1.52;;;;;;;;;;5041897;28;20041;-67
2022/05/18 11:40:57;;;;;;;2.33;1.40;;;;;;;;;;5044710;28;20049;-69
2022/05/18 11:43:39;;;;;;;2.53;1.50;;;;;;;;;;5039329;28;20054;-67
2022/05/18 11:46:29;;;;;;;1.63;1.25;;;;;;;;;;5042013;28;20053;-67
2022/05/18 11:48:56;;;;;;;2.83;1.45;;;;;;;;;;5039408;28;20055;-67
2022/05/18 11:51:29;;;;;;;2.00;1.48;;;;;;;;;;5039782;28;20056;-75
2022/05/18 11:54:22;;;;;;;2.25;1.42;;;;;;;;;;5043038;28;20050;-74
2022/05/18 11:57:11;;;;;;;2.80;1.70;;;;;;;;;;5041814;28;20060;-73
2022/05/18 12:00:08;;;;;;;2.13;1.20;;;;;;;;;;5043006;28;20053;-73
2022/05/18 12:02:54;;;;;;;3.35;1.80;;;;;;;;;;5042555;28;20049;-73
2022/05/18 12:05:46;;;;;;;1.58;1.42;;;;;;;;;;5038479;28;20457;-71
2022/05/18 12:08:37;;;;;;;2.75;1.33;;;;;;;;;;5039219;28;20044;-70
2022/05/18 12:11:29;;;;;;;4.03;1.48;;;;;;;;;;5040175;28;20075;-71
2022/05/18 12:14:08;;;;;;;1.40;1.20;;;;;;;;;;5045119;28;20050;-73
2022/05/18 12:16:34;;;;;;;2.25;1.25;;;;;;;;;;5040074;28;20057;-71
2022/05/18 12:19:21;;;;;;;3.33;1.50;;;;;;;;;;5040623;28;20389;-70
2022/05/18 12:21:50;;;;;;;1.60;1.20;;;;;;;;;;5034840;28;20419;-72
2022/05/18 12:24:17;;;;;;;2.45;1.23;;;;;;;;;;5056253;28;20050;-70
2022/05/18 12:26:45;;;;;;;2.38;1.25;;;;;;;;;;5055486;28;20053;-66
2022/05/18 12:29:17;;;;;;;1.77;1.30;;;;;;;;;;5040043;28;20053;-71
2022/05/18 12:31:43;;;;;;;2.53;1.42;;;;;;;;;;5053738;28;20115;-71
2022/05/18 12:34:13;;;;;;;4.45;1.58;;;;;;;;;;5041157;28;20088;-72
2022/05/18 12:36:50;;;;;;;1.60;1.30;;;;;;;;;;5042079;28;20135;-70
2022/05/18 12:39:42;;;;;;;2.80;1.60;;;;;;;;;;5042278;28;20049;-71
2022/05/18 12:42:15;;;;;;;4.38;1.65;;;;;;;;;;5042487;28;20041;-69
2022/05/18 12:44:50;;;;;;;1.75;1.45;;;;;;;;;;5044459;28;20060;-72
2022/05/18 12:47:19;;;;;;;3.15;1.35;;;;;;;;;;5040187;28;20176;-66
2022/05/18 12:49:55;;;;;;;3.15;1.38;;;;;;;;;;5044560;28;20049;-68
2022/05/18 12:52:36;;;;;;;2.47;1.35;;;;;;;;;;5053067;28;20064;-65
2022/05/18 12:55:23;;;;;;;2.72;1.52;;;;;;;;;;5057688;28;20052;-67
2022/05/18 12:57:53;;;;;;;1.52;1.20;;;;;;;;;;5056006;28;20107;-68
2022/05/18 13:00:19;;;;;;;3.05;1.38;;;;;;;;;;5044266;28;20085;-67
2022/05/18 13:03:09;;;;;;;3.95;1.48;;;;;;;;;;5038268;28;20053;-65
2022/05/18 13:05:43;;;;;;;3.05;1.60;;;;;;;;;;5029934;28;20046;-65
2022/05/18 13:08:15;;;;;;;1.50;1.20;;;;;;;;;;5021221;28;20508;-66
2022/05/18 13:11:14;;;;;;;2.35;1.58;;;;;;;;;;5043180;28;20098;-66
2022/05/18 13:14:00;;;;;;;3.60;1.33;;;;;;;;;;5002723;28;20046;-68
2022/05/18 13:16:36;;;;;;;1.92;1.42;;;;;;;;;;5058431;28;20049;-66
2022/05/18 13:19:26;;;;;;;4.65;1.67;;;;;;;;;;5057465;28;20049;-67
2022/05/18 13:22:07;;;;;;;1.58;1.35;;;;;;;;;;5040613;28;20072;-68
2022/05/18 13:24:54;;;;;;;2.22;1.17;;;;;;;;;;5041105;28;20053;-67
2022/05/18 13:27:52;;;;;;;2.72;1.45;;;;;;;;;;5039701;28;20057;-68
2022/05/18 13:30:33;;;;;;;2.20;1.20;;;;;;;;;;5041595;28;20067;-68
2022/05/18 13:33:20;;;;;;;2.15;1.50;;;;;;;;;;5053904;28;20107;-68
2022/05/18 13:35:48;;;;;;;2.83;1.20;;;;;;;;;;5036700;28;20045;-68
2022/05/18 13:38:20;;;;;;;2.25;1.45;;;;;;;;;;5044972;28;20095;-69
2022/05/18 13:41:09;;;;;;;2.17;1.30;;;;;;;;;;5038652;28;20118;-68
2022/05/18 13:43:39;;;;;;;2.20;1.25;;;;;;;;;;5041142;28;20531;-67
2022/05/18 13:46:26;;;;;;;1.77;1.20;;;;;;;;;;5058089;28;20421;-68
2022/05/18 13:49:02;;;;;;;1.80;1.10;;;;;;;;;;5037375;28;20102;-67
2022/05/18 13:51:33;;;;;;;3.15;1.30;;;;;;;;;;5043916;28;20432;-66
2022/05/18 13:54:06;;;;;;;2.90;1.42;;;;;;;;;;5052717;28;20049;-67
2022/05/18 13:56:38;;;;;;;4.45;1.13;;;;;;;;;;5040604;28;20107;-67
2022/05/18 13:59:10;;;;;;;1.40;1.20;;;;;;;;;;5028101;28;20450;-67
2022/05/18 14:01:45;;;;;;;2.55;1.20;;;;;;;;;;5041532;28;20045;-67
2022/05/18 14:04:18;;;;;;;1.50;1.05;;;;;;;;;;5045528;28;20053;-67
2022/05/18 14:06:49;;;;;;;1.92;1.10;;;;;;;;;;5043776;28;20504;-67
2022/05/18 14:09:17;;;;;;;1.17;1.08;;;;;;;;;;5038197;28;20126;-67
2022/05/18 14:11:44;;;;;;;1.35;1.25;;;;;;;;;;5041090;28;20459;-67
2022/05/18 14:14:14;;;;;;;2.03;1.20;;;;;;;;;;5037201;28;20049;-67
2022/05/18 14:16:56;;;;;;;2.03;1.33;;;;;;;;;;5038589;28;20076;-67
2022/05/18 14:19:49;;;;;;;2.67;0.88;;;;;;;;;;5036131;28;20527;-67
2022/05/18 14:22:17;;;;;;;3.00;1.10;;;;;;;;;;5036765;28;20103;-66
2022/05/18 14:24:53;;;;;;;1.98;0.70;;;;;;;;;;5036936;28;20537;-67
2022/05/18 14:27:43;;;;;;;1.95;1.20;;;;;;;;;;5046584;28;20557;-66
2022/05/18 14:30:35;;;;;;;1.55;1.10;;;;;;;;;;5044110;28;20049;-66
2022/05/18 14:33:43;;;;;;;1.60;1.00;;;;;;;;;;5041815;28;20431;-67
2022/05/18 14:36:31;;;;;;;3.20;1.20;;;;;;;;;;5042678;28;20118;-67
2022/05/18 14:39:01;;;;;;;0.90;0.90;;;;;;;;;;5039943;28;20049;-66
2022/05/18 14:41:34;;;;;;;3.80;1.30;;;;;;;;;;5041404;28;20049;-66
2022/05/18 14:44:01;;;;;;;3.88;1.50;;;;;;;;;;5034925;28;20522;-66
2022/05/18 14:46:34;;;;;;;2.42;1.52;;;;;;;;;;5038740;28;20118;-67
2022/05/18 14:49:13;;;;;;;2.15;1.60;;;;;;;;;;5044125;28;20048;-66
2022/05/18 14:51:43;;;;;;;3.28;1.40;;;;;;;;;;5041842;28;20045;-67
2022/05/18 14:54:26;;;;;;;2.00;1.23;;;;;;;;;;5040487;28;20095;-67
2022/05/18 14:56:56;;;;;;;3.90;1.67;;;;;;;;;;5054488;28;20045;-67
2022/05/18 14:59:23;;;;;;;2.33;1.10;;;;;;;;;;5038158;28;20382;-66
2022/05/18 15:01:58;;;;;;;3.28;1.63;;;;;;;;;;5057208;28;20058;-67
2022/05/18 15:04:28;;;;;;;1.83;1.38;;;;;;;;;;5046444;28;20053;-68
2022/05/18 15:07:13;;;;;;;2.63;1.50;;;;;;;;;;5042886;28;20128;-66
2022/05/18 15:09:51;;;;;;;3.45;1.73;;;;;;;;;;5040003;28;20075;-66
2022/05/18 15:12:42;;;;;;;2.15;1.60;;;;;;;;;;5035619;28;20049;-66
2022/05/18 15:15:17;;;;;;;2.60;1.65;;;;;;;;;;5022071;28;20099;-67
2022/05/18 15:17:52;;;;;;;5.25;1.80;;;;;;;;;;5038893;28;20053;-66
2022/05/18 15:20:22;;;;;;;2.17;1.77;;;;;;;;;;5036905;28;20060;-66
2022/05/18 15:22:57;;;;;;;4.40;1.65;;;;;;;;;;5036992;28;20050;-68
2022/05/18 15:25:38;;;;;;;5.05;1.77;;;;;;;;;;5041379;28;20100;-66
2022/05/18 15:28:17;;;;;;;2.80;1.87;;;;;;;;;;5037327;28;20052;-66
2022/05/18 15:30:52;;;;;;;3.35;2.17;;;;;;;;;;5036422;28;20311;-66
2022/05/18 15:33:19;;;;;;;4.80;2.00;;;;;;;;;;5056013;28;20072;-66
2022/05/18 15:35:57;;;;;;;2.38;1.63;;;;;;;;;;5040873;28;20057;-66
2022/05/18 15:38:24;;;;;;;1.92;1.60;;;;;;;;;;5037518;28;20053;-66